Terminal Aerodrome Forecast
Issued by NWS

Home | Current Version | Previous Version | Text Only | Print | Product List | Glossary On
Versions: 1 2 3 4 5 6 7 8 9 10 11 12 13 14
789
FTUS41 KBTV 021139 AAA
TAFRUT
TAF AMD
KRUT 021139Z 0212/0312 16007KT P6SM SCT008 OVC016
      TEMPO 0212/0215 SCT009 OVC025
     FM021500 14008KT 3SM -RA BR SCT010 OVC025
     FM022000 11005KT 5SM -DZ BR SCT008 OVC015
     FM030000 07004KT P6SM BKN015 OVC025
     FM030400 VRB03KT P6SM BKN008 OVC025
      AMD LTD TO CLD VIS AND WIND=

USA.gov is the U.S. government's official web portal to all federal, state and local government web resources and services.